Aeroparque Buenos Aires, Argentina
Current Conditions -  °F | °C
As of 1:00 PM on Monday 24 Nov 2014 (Local Time) from SABE Reporting Station
Broken Clouds Broken Clouds  
Wind Chill: 72°   Ceiling: 8000
Heat Index: 72°   Visibility: 6mi
Dew Point: 63°   Wind: 6mph
Humidity: 73%   Direction: 340°NNW
Pressure: 29.8"   Gusts: NA
Location:  34.58°S, 58.43°W
Report Text: SABE 241600Z 34005KT 300V030 9999 FEW050CB BKN080 22/17 Q1009
Loading
Personal Weather Stations






























Interactive Weather Map New forecast layout! Learn more

10-Day Weather Forecast

Advertisements
Track Severe Weather on mobile